메인 페이지
METAR-TAF:

METAR-TAF

공항 :

와가두구, 부르키나파소

위도: 12-21N, 경도: 001-31W, 고도: 316m

현재 날씨관측

예보는 48분 전, 09:00시(UTC)에 발표되었습니다.
4kt
온도 29°C
습도 58%
기압 1015 hPa
시정 10km 이상
고도 2000ft 상공 구름 조금

METAR: DFFD 150900Z 18004KT 9999 FEW020 29/20 Q1015 NOSIG

시각: 09:48 (09:48 UTC)

예보

예보는 4 시간 48분 전, 05:00시(UTC)에 발표되었습니다.
예보 대상 시간: 15일 06시부터 16일 12시까지 (UTC)
서남서8kt
시정 10km 이상
고도 2000ft 상공 구름 조금
일시적
15일 14시부터 15일 24시까지 (UTC)
시정: 4000m
고도 2000ft 상공 구름 보통
고도 3300ft 상공 구름 보통, 적란운.
뇌우, 비

TAF: DFFD 150500Z 1506/1612 24008KT 9999 FEW020 TEMPO 1514/1524 4000 TSRA SCT020 SCT033CB

4,000개 이상의 공항 관측 자료 및 예보 (METAR 및 TAF 보고).

지도상에서 검색 가능한 기상관측소가 노란 점과 빨간 점으로 표시되어 있습니다.

기상관측소 명을 보려면 표시 위로 마우스를 이동하세요.

날씨 관측과 예보를 보려면 클릭하세요.

지도 변경 : 확대하려면 엑스 표시가 있는 녹색 버튼, 축소하려면 빼기 표시가 있는 녹색 버튼, 다음 페이지의 지도를 보려면 녹색 화살표를 클릭하세요.


METAR-TAF: